createdAt,value
2017-10-30T00:00:43.920Z,81.55
2017-10-30T00:01:43.916Z,81.84
2017-10-30T00:02:43.920Z,82.21
2017-10-30T00:03:43.917Z,82.12
2017-10-30T00:04:43.913Z,81.55
2017-10-30T00:05:43.909Z,81.84
2017-10-30T00:06:43.903Z,79.84
2017-10-30T00:07:43.902Z,80.03
2017-10-30T00:08:43.898Z,79.27
2017-10-30T00:09:43.900Z,79.27
2017-10-30T00:10:43.893Z,80.03
2017-10-30T00:11:43.892Z,80.41
2017-10-30T00:12:43.891Z,79.17
2017-10-30T00:13:43.889Z,79.27
2017-10-30T00:14:43.885Z,79.17
2017-10-30T00:15:43.885Z,79.27
2017-10-30T00:16:43.882Z,77.84
2017-10-30T00:17:43.875Z,78.70
2017-10-30T00:18:43.878Z,78.61
2017-10-30T00:19:43.876Z,77.75
2017-10-30T00:20:43.874Z,78.03
2017-10-30T00:21:43.867Z,75.24
2017-10-30T00:22:43.861Z,76.39
2017-10-30T00:23:43.867Z,77.90
2017-10-30T00:24:43.860Z,77.52
2017-10-30T00:25:43.890Z,77.47
2017-10-30T00:26:43.858Z,78.70
2017-10-30T00:27:43.862Z,77.62
2017-10-30T00:28:43.851Z,78.19
2017-10-30T00:29:43.846Z,78.00
2017-10-30T00:30:43.847Z,79.04
2017-10-30T00:31:43.861Z,77.33
2017-10-30T00:32:43.842Z,77.66
2017-10-30T00:33:43.835Z,76.57
2017-10-30T00:34:43.837Z,76.76
2017-10-30T00:35:43.831Z,77.52
2017-10-30T00:36:43.829Z,76.20
2017-10-30T00:37:43.849Z,76.01
2017-10-30T00:38:43.827Z,75.05
2017-10-30T00:39:43.821Z,76.10
2017-10-30T00:40:43.825Z,75.62
2017-10-30T00:41:43.823Z,76.01
2017-10-30T00:42:43.821Z,74.96
2017-10-30T00:43:43.814Z,74.77
2017-10-30T00:44:43.813Z,75.15
2017-10-30T00:45:43.810Z,74.30
2017-10-30T00:46:43.810Z,75.24
2017-10-30T00:47:43.804Z,75.15
2017-10-30T00:48:43.802Z,75.53
2017-10-30T00:49:43.801Z,75.72
2017-10-30T00:50:43.797Z,76.20
2017-10-30T00:51:43.797Z,76.95
2017-10-30T00:52:43.800Z,75.24
2017-10-30T00:53:43.790Z,76.39
2017-10-30T00:54:43.790Z,76.86
2017-10-30T00:55:43.788Z,76.20
2017-10-30T00:56:43.780Z,76.48
2017-10-30T00:57:43.781Z,76.86
2017-10-30T00:58:43.778Z,74.96
2017-10-30T00:59:43.782Z,75.24
2017-10-30T01:00:43.813Z,75.05
2017-10-30T01:01:43.768Z,75.24
2017-10-30T01:02:43.773Z,74.96
2017-10-30T01:03:43.767Z,74.96
2017-10-30T01:04:43.764Z,75.91
2017-10-30T01:05:43.755Z,76.67
2017-10-30T01:06:43.757Z,75.81
2017-10-30T01:07:43.759Z,75.24
2017-10-30T01:08:43.761Z,75.91
2017-10-30T01:09:43.752Z,75.53
2017-10-30T01:10:43.752Z,76.10
2017-10-30T01:11:43.751Z,76.86
2017-10-30T01:12:43.743Z,75.81
2017-10-30T01:13:43.741Z,77.24
2017-10-30T01:14:43.736Z,76.76
2017-10-30T01:15:43.735Z,76.95
2017-10-30T01:16:43.738Z,76.57
2017-10-30T01:17:43.736Z,76.39
2017-10-30T01:18:43.727Z,74.96
2017-10-30T01:19:43.728Z,75.43
2017-10-30T01:20:43.719Z,75.91
2017-10-30T01:21:43.718Z,75.91
2017-10-30T01:22:43.717Z,76.01
2017-10-30T01:23:43.725Z,74.49
2017-10-30T01:24:43.717Z,74.68
2017-10-30T01:25:43.710Z,74.49
2017-10-30T01:26:43.732Z,73.92
2017-10-30T01:27:43.728Z,74.20
2017-10-30T01:28:43.711Z,74.68
2017-10-30T01:29:43.770Z,73.54
2017-10-30T01:30:43.700Z,74.96
2017-10-30T01:31:43.696Z,74.58
2017-10-30T01:32:43.693Z,75.24
2017-10-30T01:33:43.687Z,76.76
2017-10-30T01:34:43.685Z,75.05
2017-10-30T01:35:43.690Z,74.20
2017-10-30T01:36:43.686Z,73.25
2017-10-30T01:37:43.679Z,74.39
2017-10-30T01:38:43.679Z,74.39
2017-10-30T01:39:43.679Z,74.39
2017-10-30T01:40:43.677Z,74.96
2017-10-30T01:41:43.666Z,74.96
2017-10-30T01:42:43.669Z,73.07
2017-10-30T01:43:43.663Z,74.77
2017-10-30T01:44:43.659Z,74.20
2017-10-30T01:45:43.663Z,74.58
2017-10-30T01:46:43.653Z,74.68
2017-10-30T01:47:43.654Z,73.25
2017-10-30T01:48:43.657Z,72.02
2017-10-30T01:50:43.641Z,73.54
2017-10-30T01:51:43.642Z,73.16
2017-10-30T01:52:43.638Z,73.72
2017-10-30T01:53:43.640Z,73.54
2017-10-30T01:54:44.819Z,75.53
2017-10-30T01:55:43.631Z,73.25
2017-10-30T01:56:43.629Z,73.07
2017-10-30T01:57:43.635Z,74.58
2017-10-30T01:58:43.624Z,73.54
2017-10-30T01:59:43.631Z,73.72
2017-10-30T02:00:43.622Z,74.39
2017-10-30T02:01:43.615Z,73.16
2017-10-30T02:02:43.618Z,73.54
2017-10-30T02:03:43.617Z,74.30
2017-10-30T02:04:43.606Z,73.72
2017-10-30T02:05:43.608Z,74.20
2017-10-30T02:06:43.601Z,73.35
2017-10-30T02:07:43.604Z,74.96
2017-10-30T02:08:43.598Z,74.49
2017-10-30T02:09:43.597Z,74.68
2017-10-30T02:10:43.592Z,73.54
2017-10-30T02:11:43.590Z,75.91
2017-10-30T02:12:43.583Z,75.81
2017-10-30T02:13:43.581Z,76.95
2017-10-30T02:14:43.594Z,75.53
2017-10-30T02:15:43.582Z,75.81
2017-10-30T02:16:43.573Z,75.62
2017-10-30T02:17:43.570Z,76.67
2017-10-30T02:18:43.571Z,78.38
2017-10-30T02:19:43.568Z,77.24
2017-10-30T02:20:43.567Z,78.66
2017-10-30T02:21:43.561Z,76.76
2017-10-30T02:22:43.559Z,77.24
2017-10-30T02:23:43.559Z,77.71
2017-10-30T02:24:43.553Z,76.76
2017-10-30T02:25:43.548Z,77.81
2017-10-30T02:26:43.556Z,77.33
2017-10-30T02:27:43.544Z,76.67
2017-10-30T02:28:43.543Z,77.52
2017-10-30T02:29:43.543Z,77.33
2017-10-30T02:30:43.535Z,78.09
2017-10-30T02:31:43.538Z,78.28
2017-10-30T02:32:43.535Z,78.09
2017-10-30T02:33:43.557Z,77.43
2017-10-30T02:34:43.528Z,77.52
2017-10-30T02:35:43.525Z,77.71
2017-10-30T02:36:43.517Z,78.09
2017-10-30T02:37:43.517Z,77.62
2017-10-30T02:38:43.522Z,76.67
2017-10-30T02:39:43.510Z,77.81
2017-10-30T02:40:43.513Z,77.33
2017-10-30T02:41:43.507Z,77.33
2017-10-30T02:42:43.502Z,78.95
2017-10-30T02:43:43.504Z,78.66
2017-10-30T02:44:43.497Z,79.33
2017-10-30T02:45:43.490Z,79.61
2017-10-30T02:46:43.487Z,79.33
2017-10-30T02:47:43.489Z,81.23
2017-10-30T02:48:43.483Z,80.75
2017-10-30T02:49:43.478Z,81.32
2017-10-30T02:50:43.487Z,80.08
2017-10-30T02:51:43.476Z,79.33
2017-10-30T02:52:43.473Z,80.65
2017-10-30T02:53:43.475Z,79.52
2017-10-30T02:54:43.472Z,80.84
2017-10-30T02:55:43.466Z,80.18
2017-10-30T02:56:43.465Z,78.38
2017-10-30T02:57:43.457Z,79.52
2017-10-30T02:58:43.458Z,79.33
2017-10-30T02:59:43.452Z,79.52
2017-10-30T03:00:43.455Z,78.19
2017-10-30T03:01:43.452Z,80.65
2017-10-30T03:02:43.518Z,79.04
2017-10-30T03:03:43.439Z,79.14
2017-10-30T03:04:43.466Z,78.95
2017-10-30T03:05:43.441Z,78.05
2017-10-30T03:06:43.432Z,79.61
2017-10-30T03:07:43.434Z,80.14
2017-10-30T03:08:43.432Z,79.42
2017-10-30T03:09:43.424Z,79.38
2017-10-30T03:10:43.425Z,79.10
2017-10-30T03:11:43.419Z,79.57
2017-10-30T03:12:43.414Z,79.14
2017-10-30T03:13:43.413Z,80.18
2017-10-30T03:14:43.409Z,79.61
2017-10-30T03:15:43.404Z,78.91
2017-10-30T03:16:43.405Z,78.43
2017-10-30T03:17:43.400Z,78.05
2017-10-30T03:18:43.405Z,77.96
2017-10-30T03:19:43.391Z,78.72
2017-10-30T03:20:43.392Z,78.34
2017-10-30T03:21:43.392Z,77.48
2017-10-30T03:22:43.385Z,78.43
2017-10-30T03:23:43.382Z,78.62
2017-10-30T03:24:43.380Z,76.92
2017-10-30T03:25:43.379Z,77.58
2017-10-30T03:26:43.375Z,78.43
2017-10-30T03:27:43.369Z,78.62
2017-10-30T03:28:43.376Z,78.43
2017-10-30T03:29:43.366Z,78.24
2017-10-30T03:30:43.362Z,78.05
2017-10-30T03:31:43.364Z,77.77
2017-10-30T03:32:43.362Z,78.91
2017-10-30T03:33:43.354Z,78.24
2017-10-30T03:34:43.349Z,78.34
2017-10-30T03:35:43.353Z,77.96
2017-10-30T03:36:43.348Z,78.24
2017-10-30T03:37:43.345Z,78.24
2017-10-30T03:38:43.337Z,77.67
2017-10-30T03:39:43.336Z,77.96
2017-10-30T03:40:43.334Z,78.24
2017-10-30T03:41:43.329Z,76.63
2017-10-30T03:42:43.336Z,76.73
2017-10-30T03:43:43.322Z,77.48
2017-10-30T03:44:43.319Z,77.67
2017-10-30T03:45:43.319Z,79.19
2017-10-30T03:46:43.323Z,77.86
2017-10-30T03:47:43.316Z,78.34
2017-10-30T03:48:43.310Z,78.05
2017-10-30T03:49:43.304Z,78.24
2017-10-30T03:50:43.301Z,78.43
2017-10-30T03:51:43.299Z,78.15
2017-10-30T03:52:43.313Z,77.86
2017-10-30T03:53:43.296Z,75.87
2017-10-30T03:54:43.286Z,77.48
2017-10-30T03:55:43.288Z,77.48
2017-10-30T03:56:43.289Z,77.58
2017-10-30T03:57:43.286Z,76.92
2017-10-30T03:58:43.283Z,76.92
2017-10-30T03:59:43.286Z,77.11
2017-10-30T04:00:43.271Z,77.39
2017-10-30T04:01:43.271Z,77.29
2017-10-30T04:02:43.360Z,76.92
2017-10-30T04:03:43.261Z,76.92
2017-10-30T04:04:43.262Z,77.48
2017-10-30T04:05:43.257Z,76.54
2017-10-30T04:06:43.258Z,76.63
2017-10-30T04:07:43.261Z,76.87
2017-10-30T04:08:43.282Z,77.48
2017-10-30T04:09:43.251Z,76.31
2017-10-30T04:10:43.242Z,77.06
2017-10-30T04:11:43.244Z,77.45
2017-10-30T04:12:43.240Z,78.02
2017-10-30T04:13:43.241Z,77.45
2017-10-30T04:14:43.231Z,77.06
2017-10-30T04:15:43.233Z,79.25
2017-10-30T04:16:43.226Z,78.72
2017-10-30T04:17:43.223Z,78.39
2017-10-30T04:18:43.220Z,78.20
2017-10-30T04:19:43.221Z,79.10
2017-10-30T04:20:43.218Z,78.58
2017-10-30T04:21:43.211Z,79.15
2017-10-30T04:22:43.209Z,78.49
2017-10-30T04:23:43.208Z,78.30
2017-10-30T04:24:43.204Z,78.58
2017-10-30T04:25:43.202Z,77.54
2017-10-30T04:26:43.193Z,77.73
2017-10-30T04:27:43.192Z,77.16
2017-10-30T04:28:43.192Z,77.92
2017-10-30T04:29:43.189Z,76.87
2017-10-30T04:30:43.194Z,74.51
2017-10-30T04:31:43.181Z,76.87
2017-10-30T04:32:43.178Z,78.30
2017-10-30T04:33:43.184Z,78.11
2017-10-30T04:34:43.167Z,78.67
2017-10-30T04:35:43.169Z,77.92
2017-10-30T04:36:43.168Z,79.63
2017-10-30T04:37:43.161Z,79.06
2017-10-30T04:38:43.160Z,78.39
2017-10-30T04:39:43.163Z,78.39
2017-10-30T04:40:43.153Z,77.54
2017-10-30T04:41:43.158Z,78.49
2017-10-30T04:42:43.148Z,79.06
2017-10-30T04:43:43.145Z,78.87
2017-10-30T04:44:43.141Z,79.44
2017-10-30T04:45:43.135Z,79.15
2017-10-30T04:46:43.132Z,79.15
2017-10-30T04:47:43.134Z,80.00
2017-10-30T04:48:43.130Z,79.15
2017-10-30T04:49:43.126Z,78.96
2017-10-30T04:50:43.123Z,79.25
2017-10-30T04:51:43.122Z,79.72
2017-10-30T04:52:43.116Z,78.49
2017-10-30T04:53:43.110Z,79.15
2017-10-30T04:54:43.111Z,79.53
2017-10-30T04:55:43.105Z,79.63
2017-10-30T04:56:43.107Z,80.19
2017-10-30T04:57:43.100Z,79.25
2017-10-30T04:58:43.093Z,79.06
2017-10-30T04:59:43.092Z,80.10
2017-10-30T05:00:43.087Z,79.34
2017-10-30T05:01:43.089Z,80.00
2017-10-30T05:02:43.089Z,79.91
2017-10-30T05:03:43.083Z,80.29
2017-10-30T05:04:43.081Z,79.91
2017-10-30T05:05:43.075Z,79.53
2017-10-30T05:06:43.069Z,78.20
2017-10-30T05:07:43.071Z,79.53
2017-10-30T05:08:43.065Z,80.10
2017-10-30T05:09:43.060Z,80.29
2017-10-30T05:10:43.057Z,79.63
2017-10-30T05:11:43.056Z,79.25
2017-10-30T05:12:43.056Z,79.06
2017-10-30T05:13:43.048Z,79.25
2017-10-30T05:14:43.048Z,79.91
2017-10-30T05:15:43.043Z,80.10
2017-10-30T05:16:43.046Z,79.25
2017-10-30T05:17:43.037Z,78.58
2017-10-30T05:18:43.029Z,79.53
2017-10-30T05:19:43.032Z,79.15
2017-10-30T05:20:43.024Z,79.82
2017-10-30T05:21:43.020Z,81.05
2017-10-30T05:22:43.022Z,79.63
2017-10-30T05:23:43.018Z,80.29
2017-10-30T05:24:43.015Z,78.87
2017-10-30T05:25:43.008Z,80.48
2017-10-30T05:26:43.004Z,80.67
2017-10-30T05:27:43.005Z,80.19
2017-10-30T05:28:43.005Z,81.14
2017-10-30T05:29:42.995Z,80.76
2017-10-30T05:30:43.001Z,80.67
2017-10-30T05:31:42.992Z,80.10
2017-10-30T05:32:42.984Z,80.38
2017-10-30T05:33:42.985Z,81.05
2017-10-30T05:34:42.986Z,79.06
2017-10-30T05:35:42.978Z,79.25
2017-10-30T05:36:42.975Z,79.91
2017-10-30T05:37:42.969Z,80.00
2017-10-30T05:38:42.968Z,78.87
2017-10-30T05:39:42.968Z,79.91
2017-10-30T05:40:42.964Z,79.44
2017-10-30T05:41:42.958Z,80.38
2017-10-30T05:42:42.951Z,79.82
2017-10-30T05:43:42.949Z,78.02
2017-10-30T05:44:42.945Z,78.16
2017-10-30T05:45:42.946Z,79.25
2017-10-30T05:46:42.941Z,79.91
2017-10-30T05:47:42.935Z,80.38
2017-10-30T05:48:42.930Z,80.00
2017-10-30T05:49:42.928Z,81.62
2017-10-30T05:50:42.932Z,80.29
2017-10-30T05:51:42.921Z,81.90
2017-10-30T05:52:42.924Z,82.37
2017-10-30T05:53:42.917Z,81.14
2017-10-30T05:54:42.910Z,82.75
2017-10-30T05:55:42.913Z,81.43
2017-10-30T05:56:42.905Z,80.57
2017-10-30T05:57:42.901Z,82.18
2017-10-30T05:58:42.897Z,81.14
2017-10-30T05:59:42.901Z,80.48
2017-10-30T06:00:42.894Z,79.96
2017-10-30T06:01:42.896Z,79.02
2017-10-30T06:02:42.882Z,81.43
2017-10-30T06:03:42.880Z,80.67
2017-10-30T06:04:42.880Z,80.72
2017-10-30T06:05:42.881Z,80.91
2017-10-30T06:06:42.874Z,81.10
2017-10-30T06:07:42.871Z,81.95
2017-10-30T06:08:42.865Z,81.01
2017-10-30T06:09:42.859Z,82.24
2017-10-30T06:10:42.864Z,83.04
2017-10-30T06:11:42.854Z,83.32
2017-10-30T06:12:42.853Z,84.27
2017-10-30T06:13:42.844Z,83.80
2017-10-30T06:14:42.840Z,83.70
2017-10-30T06:15:42.843Z,82.18
2017-10-30T06:16:42.839Z,83.89
2017-10-30T06:17:42.832Z,84.17
2017-10-30T06:18:42.826Z,83.98
2017-10-30T06:19:42.833Z,84.27
2017-10-30T06:20:42.822Z,81.81
2017-10-30T06:21:42.815Z,83.00
2017-10-30T06:22:42.819Z,83.18
2017-10-30T06:23:42.810Z,84.99
2017-10-30T06:24:42.809Z,84.32
2017-10-30T06:25:42.806Z,82.14
2017-10-30T06:26:42.804Z,82.52
2017-10-30T06:27:42.800Z,81.01
2017-10-30T06:28:42.793Z,82.14
2017-10-30T06:29:42.792Z,84.23
2017-10-30T06:30:42.792Z,81.38
2017-10-30T06:31:42.788Z,83.28
2017-10-30T06:32:42.789Z,83.18
2017-10-30T06:33:42.775Z,82.71
2017-10-30T06:34:42.772Z,82.05
2017-10-30T06:35:42.771Z,83.85
2017-10-30T06:36:42.767Z,80.44
2017-10-30T06:37:42.761Z,84.23
2017-10-30T06:38:42.760Z,82.24
2017-10-30T06:39:42.759Z,81.20
2017-10-30T06:40:42.751Z,80.82
2017-10-30T06:41:42.751Z,81.38
2017-10-30T06:42:42.753Z,80.91
2017-10-30T06:43:42.742Z,83.85
2017-10-30T06:44:42.742Z,83.85
2017-10-30T06:45:42.742Z,82.81
2017-10-30T06:46:42.732Z,84.51
2017-10-30T06:47:42.728Z,82.71
2017-10-30T06:48:42.731Z,80.44
2017-10-30T06:49:42.721Z,83.47
2017-10-30T06:50:42.718Z,83.85
2017-10-30T06:51:42.769Z,82.43
2017-10-30T06:52:42.715Z,82.43
2017-10-30T06:53:42.711Z,82.81
2017-10-30T06:54:42.717Z,82.05
2017-10-30T06:55:42.706Z,83.28
2017-10-30T06:56:42.708Z,81.38
2017-10-30T06:57:42.696Z,84.80
2017-10-30T06:58:42.698Z,84.51
2017-10-30T06:59:42.793Z,82.62
2017-10-30T07:00:42.688Z,84.32
2017-10-30T07:01:42.679Z,84.13
2017-10-30T07:02:42.679Z,85.03
2017-10-30T07:03:42.682Z,84.55
2017-10-30T07:04:42.672Z,86.16
2017-10-30T07:05:42.671Z,86.26
2017-10-30T07:06:42.671Z,85.88
2017-10-30T07:07:42.661Z,86.07
2017-10-30T07:08:42.662Z,84.55
2017-10-30T07:09:42.653Z,86.07
2017-10-30T07:10:42.651Z,86.93
2017-10-30T07:11:42.647Z,86.07
2017-10-30T07:12:42.648Z,85.31
2017-10-30T07:13:42.643Z,89.67
2017-10-30T07:14:42.638Z,86.35
2017-10-30T07:15:42.638Z,88.63
2017-10-30T07:16:42.629Z,88.54
2017-10-30T07:17:42.636Z,87.97
2017-10-30T07:18:42.622Z,88.63
2017-10-30T07:19:42.618Z,89.77
2017-10-30T07:20:42.616Z,90.72
2017-10-30T07:21:42.614Z,90.81
2017-10-30T07:22:42.613Z,90.72
2017-10-30T07:23:42.607Z,90.34
2017-10-30T07:24:42.611Z,90.15
2017-10-30T07:25:42.608Z,92.99
2017-10-30T07:26:42.600Z,92.04
2017-10-30T07:27:42.600Z,93.99
2017-10-30T07:28:42.597Z,93.23
2017-10-30T07:29:42.598Z,94.37
2017-10-30T07:30:42.586Z,93.41
2017-10-30T07:31:42.590Z,94.18
2017-10-30T07:32:42.671Z,93.99
2017-10-30T07:33:42.575Z,95.79
2017-10-30T07:34:42.571Z,93.89
2017-10-30T07:35:42.571Z,95.69
2017-10-30T07:36:42.568Z,96.73
2017-10-30T07:37:42.558Z,95.31
2017-10-30T07:38:42.558Z,97.59
2017-10-30T07:39:42.554Z,97.31
2017-10-30T07:40:42.549Z,97.02
2017-10-30T07:41:42.550Z,98.82
2017-10-30T07:42:42.539Z,97.50
2017-10-30T07:43:42.542Z,97.59
2017-10-30T07:44:42.539Z,96.36
2017-10-30T07:45:42.541Z,97.88
2017-10-30T07:46:42.530Z,97.83
2017-10-30T07:47:42.529Z,97.59
2017-10-30T07:48:42.531Z,97.55
2017-10-30T07:49:42.519Z,99.16
2017-10-30T07:50:42.518Z,97.74
2017-10-30T07:51:42.514Z,97.92
2017-10-30T07:52:42.515Z,97.92
2017-10-30T07:53:42.509Z,96.88
2017-10-30T07:54:42.511Z,99.63
2017-10-30T07:55:42.506Z,98.30
2017-10-30T07:56:42.500Z,97.92
2017-10-30T07:57:42.494Z,96.22
2017-10-30T07:58:42.493Z,96.88
2017-10-30T07:59:42.497Z,98.97
2017-10-30T08:00:42.488Z,99.35
2017-10-30T08:01:42.483Z,99.99
2017-10-30T08:02:42.483Z,99.99
2017-10-30T08:03:42.478Z,98.78
2017-10-30T08:04:42.474Z,98.78
2017-10-30T08:05:42.476Z,98.97
2017-10-30T08:06:42.475Z,99.99
2017-10-30T08:07:42.467Z,98.30
2017-10-30T08:08:42.479Z,97.45
2017-10-30T08:09:42.464Z,99.99
2017-10-30T08:10:42.463Z,99.99
2017-10-30T08:11:42.461Z,99.91
2017-10-30T08:12:42.453Z,99.26
2017-10-30T08:13:42.465Z,99.73
2017-10-30T08:14:42.455Z,99.99
2017-10-30T08:15:42.453Z,98.68
2017-10-30T08:16:42.446Z,99.63
2017-10-30T08:17:42.439Z,99.99
2017-10-30T08:18:42.435Z,99.99
2017-10-30T08:19:42.435Z,98.78
2017-10-30T08:20:42.435Z,99.99
2017-10-30T08:21:42.430Z,99.99
2017-10-30T08:22:42.433Z,99.99
2017-10-30T08:23:42.422Z,99.99
2017-10-30T08:24:42.421Z,99.99
2017-10-30T08:25:42.419Z,99.99
2017-10-30T08:26:42.421Z,99.99
2017-10-30T08:27:42.421Z,99.99
2017-10-30T08:28:42.415Z,99.99
2017-10-30T08:29:42.411Z,99.99
2017-10-30T08:30:42.404Z,99.99
2017-10-30T08:31:42.404Z,99.99
2017-10-30T08:32:42.407Z,99.99
2017-10-30T08:33:42.398Z,99.99
2017-10-30T08:34:42.395Z,99.99
2017-10-30T08:35:42.392Z,99.99
2017-10-30T08:36:42.397Z,99.99
2017-10-30T08:37:42.385Z,99.99
2017-10-30T08:38:42.386Z,99.99
2017-10-30T08:39:42.383Z,99.99
2017-10-30T08:40:42.384Z,99.99
2017-10-30T08:41:42.373Z,99.99
2017-10-30T08:42:42.376Z,99.99
2017-10-30T08:43:42.379Z,99.99
2017-10-30T08:44:42.370Z,99.99
2017-10-30T08:45:42.366Z,99.99
2017-10-30T08:46:42.368Z,99.99
2017-10-30T08:47:42.362Z,99.99
2017-10-30T08:48:42.368Z,99.99
2017-10-30T08:49:42.360Z,99.99
2017-10-30T08:50:42.357Z,99.99
2017-10-30T08:51:42.362Z,99.99
2017-10-30T08:52:42.353Z,99.99
2017-10-30T08:53:42.350Z,99.99
2017-10-30T08:54:42.352Z,99.99
2017-10-30T08:55:42.344Z,99.99
2017-10-30T08:56:42.346Z,99.99
2017-10-30T08:57:42.350Z,99.99
2017-10-30T08:58:42.346Z,99.99
2017-10-30T08:59:42.339Z,99.99
2017-10-30T09:00:42.338Z,99.99
2017-10-30T09:01:42.332Z,99.99
2017-10-30T09:02:42.335Z,99.99
2017-10-30T09:03:42.328Z,99.99
2017-10-30T09:04:42.327Z,99.99
2017-10-30T09:05:42.327Z,99.99
2017-10-30T09:06:42.327Z,99.99
2017-10-30T09:07:42.321Z,99.99
2017-10-30T09:08:42.321Z,99.99
2017-10-30T09:09:42.314Z,99.99
2017-10-30T09:10:42.314Z,99.99
2017-10-30T09:11:42.314Z,99.99
2017-10-30T09:12:42.339Z,99.99
2017-10-30T09:13:42.305Z,99.99
2017-10-30T09:14:42.332Z,99.99
2017-10-30T09:15:42.305Z,99.99
2017-10-30T09:16:42.307Z,99.99
2017-10-30T09:17:42.305Z,99.99
2017-10-30T09:18:42.305Z,99.99
2017-10-30T09:19:42.297Z,99.99
2017-10-30T09:20:42.303Z,99.99
2017-10-30T09:21:42.294Z,99.99
2017-10-30T09:22:42.290Z,99.99
2017-10-30T09:23:42.286Z,99.99
2017-10-30T09:26:14.406Z,99.99
2017-10-30T09:27:14.359Z,99.99
2017-10-30T09:28:14.365Z,99.99
2017-10-30T09:29:14.354Z,99.99
2017-10-30T09:30:14.354Z,99.99
2017-10-30T09:31:14.351Z,99.99
2017-10-30T09:32:14.371Z,99.99
2017-10-30T09:33:14.353Z,99.99
2017-10-30T09:34:14.349Z,99.99
2017-10-30T09:35:14.453Z,99.99
2017-10-30T09:36:14.347Z,99.99
2017-10-30T09:37:14.345Z,99.99
2017-10-30T09:38:14.338Z,99.99
2017-10-30T09:39:14.336Z,99.99
2017-10-30T09:40:14.341Z,99.26
2017-10-30T09:41:14.336Z,99.74
2017-10-30T09:42:14.339Z,99.16
2017-10-30T09:43:14.331Z,99.16
2017-10-30T09:44:14.332Z,98.60
2017-10-30T09:45:14.330Z,98.31
2017-10-30T09:46:14.329Z,99.93
2017-10-30T09:47:14.333Z,99.99
2017-10-30T09:48:14.331Z,99.64
2017-10-30T09:49:14.339Z,99.26
2017-10-30T09:50:14.326Z,98.97
2017-10-30T09:51:14.323Z,98.31
2017-10-30T09:52:14.315Z,96.98
2017-10-30T09:53:14.319Z,96.03
2017-10-30T09:54:14.317Z,97.55
2017-10-30T09:55:14.310Z,98.97
2017-10-30T09:56:14.311Z,99.36
2017-10-30T09:57:14.320Z,98.41
2017-10-30T09:58:14.311Z,98.41
2017-10-30T09:59:14.311Z,98.03
2017-10-30T10:00:14.307Z,97.93
2017-10-30T10:01:14.305Z,98.12
2017-10-30T10:02:14.310Z,96.50
2017-10-30T10:03:14.304Z,93.75
2017-10-30T10:04:14.306Z,94.42
2017-10-30T10:05:14.306Z,93.37
2017-10-30T10:06:14.301Z,94.13
2017-10-30T10:07:14.296Z,94.70
2017-10-30T10:08:14.296Z,95.36
2017-10-30T10:09:14.297Z,96.79
2017-10-30T10:10:14.302Z,94.13
2017-10-30T10:11:14.296Z,91.75
2017-10-30T10:12:14.291Z,92.13
2017-10-30T10:13:14.289Z,94.42
2017-10-30T10:14:14.295Z,93.75
2017-10-30T10:15:14.305Z,95.56
2017-10-30T10:16:14.287Z,95.17
2017-10-30T10:17:14.282Z,93.27
2017-10-30T10:18:14.285Z,93.27
2017-10-30T10:19:14.283Z,92.99
2017-10-30T10:20:14.291Z,93.08
2017-10-30T10:21:14.284Z,90.23
2017-10-30T10:22:14.289Z,90.75
2017-10-30T10:23:14.288Z,92.08
2017-10-30T10:24:14.283Z,93.65
2017-10-30T10:25:14.277Z,92.75
2017-10-30T10:26:14.276Z,94.46
2017-10-30T10:27:14.280Z,93.51
2017-10-30T10:28:14.277Z,91.70
2017-10-30T10:29:14.271Z,89.80
2017-10-30T10:30:14.270Z,90.28
2017-10-30T10:31:14.270Z,88.56
2017-10-30T10:32:14.270Z,88.56
2017-10-30T10:33:14.266Z,89.89
2017-10-30T10:34:14.267Z,91.61
2017-10-30T10:35:14.267Z,91.13
2017-10-30T10:36:14.262Z,86.28
2017-10-30T10:37:14.263Z,84.00
2017-10-30T10:38:14.265Z,85.71
2017-10-30T10:39:14.263Z,83.90
2017-10-30T10:40:14.261Z,87.23
2017-10-30T10:41:14.264Z,90.18
2017-10-30T10:42:14.266Z,88.94
2017-10-30T10:43:14.260Z,87.13
2017-10-30T10:44:14.262Z,85.80
2017-10-30T10:45:14.261Z,84.56
2017-10-30T10:46:14.256Z,82.76
2017-10-30T10:47:14.259Z,81.33
2017-10-30T10:48:14.260Z,82.19
2017-10-30T10:49:14.258Z,82.19
2017-10-30T10:50:14.258Z,80.86
2017-10-30T10:51:14.251Z,79.72
2017-10-30T10:52:14.263Z,81.24
2017-10-30T10:53:14.252Z,80.57
2017-10-30T10:54:14.256Z,81.43
2017-10-30T10:55:14.252Z,79.72
2017-10-30T10:56:14.250Z,81.81
2017-10-30T10:57:14.247Z,78.19
2017-10-30T10:58:14.253Z,77.05
2017-10-30T10:59:14.251Z,78.38
2017-10-30T11:00:14.245Z,79.81
2017-10-30T11:01:14.244Z,77.95
2017-10-30T11:02:14.241Z,78.52
2017-10-30T11:03:14.245Z,75.09
2017-10-30T11:04:14.242Z,75.85
2017-10-30T11:05:14.243Z,78.90
2017-10-30T11:06:14.248Z,75.67
2017-10-30T11:07:14.264Z,74.99
2017-10-30T11:08:14.237Z,73.00
2017-10-30T11:09:14.241Z,72.42
2017-10-30T11:10:14.236Z,73.15
2017-10-30T11:11:14.238Z,72.81
2017-10-30T11:12:14.242Z,72.42
2017-10-30T11:13:14.239Z,72.71
2017-10-30T11:14:14.243Z,73.85
2017-10-30T11:15:14.239Z,74.24
2017-10-30T11:16:14.231Z,74.43
2017-10-30T11:17:14.234Z,74.24
2017-10-30T11:18:14.234Z,76.42
2017-10-30T11:19:14.234Z,77.66
2017-10-30T11:20:14.233Z,75.67
2017-10-30T11:21:14.235Z,73.57
2017-10-30T11:22:14.231Z,73.00
2017-10-30T11:23:14.229Z,71.86
2017-10-30T11:24:14.225Z,74.04
2017-10-30T11:25:14.390Z,76.61
2017-10-30T11:26:14.227Z,75.85
2017-10-30T11:27:14.234Z,78.61
2017-10-30T11:28:14.233Z,76.42
2017-10-30T11:29:14.223Z,73.47
2017-10-30T11:30:14.224Z,74.71
2017-10-30T11:31:14.224Z,74.71
2017-10-30T11:32:14.223Z,73.95
2017-10-30T11:33:14.223Z,72.62
2017-10-30T11:34:14.230Z,71.95
2017-10-30T11:35:14.221Z,71.28
2017-10-30T11:36:14.219Z,71.28
2017-10-30T11:37:14.221Z,71.47
2017-10-30T11:38:14.221Z,72.14
2017-10-30T11:39:14.227Z,74.24
2017-10-30T11:40:14.221Z,73.28
2017-10-30T11:41:14.223Z,71.67
2017-10-30T11:42:14.217Z,68.71
2017-10-30T11:43:14.221Z,70.24
2017-10-30T11:44:14.217Z,69.48
2017-10-30T11:45:14.214Z,69.38
2017-10-30T11:46:14.217Z,69.95
2017-10-30T11:47:14.214Z,70.14
2017-10-30T11:48:14.221Z,71.28
2017-10-30T11:49:14.215Z,73.38
2017-10-30T11:50:14.215Z,73.00
2017-10-30T11:51:14.218Z,73.85
2017-10-30T11:52:14.213Z,74.71
2017-10-30T11:53:14.208Z,73.38
2017-10-30T11:54:14.208Z,71.28
2017-10-30T11:55:14.209Z,73.38
2017-10-30T11:56:14.209Z,72.52
2017-10-30T11:57:14.210Z,75.19
2017-10-30T11:58:14.209Z,76.42
2017-10-30T11:59:14.207Z,76.71
2017-10-30T12:00:14.209Z,75.04
2017-10-30T12:01:14.211Z,72.62
2017-10-30T12:02:14.212Z,72.71
2017-10-30T12:03:14.212Z,72.14
2017-10-30T12:04:14.211Z,71.67
2017-10-30T12:05:14.205Z,72.24
2017-10-30T12:06:14.202Z,71.09
2017-10-30T12:07:14.209Z,68.71
2017-10-30T12:08:14.206Z,69.10
2017-10-30T12:09:14.209Z,71.28
2017-10-30T12:10:14.210Z,70.24
2017-10-30T12:11:14.204Z,69.51
2017-10-30T12:12:14.202Z,68.08
2017-10-30T12:13:14.208Z,69.51
2017-10-30T12:14:14.204Z,69.42
2017-10-30T12:15:14.207Z,68.90
2017-10-30T12:16:14.205Z,67.86
2017-10-30T12:17:14.205Z,70.18
2017-10-30T12:18:14.203Z,69.32
2017-10-30T12:19:14.200Z,65.80
2017-10-30T12:20:14.200Z,63.67
2017-10-30T12:21:14.202Z,63.86
2017-10-30T12:22:14.201Z,63.57
2017-10-30T12:23:14.201Z,65.67
2017-10-30T12:24:14.201Z,66.24
2017-10-30T12:25:14.199Z,66.05
2017-10-30T12:26:14.203Z,66.24
2017-10-30T12:27:14.200Z,67.47
2017-10-30T12:28:14.205Z,72.33
2017-10-30T12:29:14.208Z,71.70
2017-10-30T12:30:14.218Z,68.84
2017-10-30T12:31:14.202Z,68.05
2017-10-30T12:32:14.199Z,70.14
2017-10-30T12:33:14.202Z,71.09
2017-10-30T12:34:14.198Z,72.05
2017-10-30T12:35:14.199Z,72.46
2017-10-30T12:36:14.196Z,70.05
2017-10-30T12:37:14.202Z,69.42
2017-10-30T12:38:14.200Z,68.43
2017-10-30T12:39:14.196Z,68.24
2017-10-30T12:40:14.195Z,68.56
2017-10-30T12:41:14.201Z,69.60
2017-10-30T12:42:14.197Z,71.09
2017-10-30T12:43:14.197Z,73.61
2017-10-30T12:44:14.196Z,71.22
2017-10-30T12:45:14.196Z,71.42
2017-10-30T12:46:14.198Z,69.00
2017-10-30T12:47:14.201Z,69.85
2017-10-30T12:48:14.197Z,67.29
2017-10-30T12:49:14.198Z,64.81
2017-10-30T12:50:14.200Z,66.43
2017-10-30T12:51:14.192Z,68.15
2017-10-30T12:52:14.201Z,66.33
2017-10-30T12:53:14.198Z,66.81
2017-10-30T12:54:14.198Z,69.95
2017-10-30T12:55:14.203Z,69.57